sensor_id;sensor_type;location;lat;lon;timestamp;pressure;altitude;pressure_sealevel;temperature;humidity
16481;BME280;44634;54.110;12.138;2023-04-10T00:00:49;102424.81;;;6.93;100.00
16481;BME280;44634;54.110;12.138;2023-04-10T00:03:22;102411.50;;;7.15;100.00
16481;BME280;44634;54.110;12.138;2023-04-10T00:05:51;102409.13;;;7.10;100.00
16481;BME280;44634;54.110;12.138;2023-04-10T00:08:22;102390.63;;;6.93;100.00
16481;BME280;44634;54.110;12.138;2023-04-10T00:10:50;102379.06;;;6.78;100.00
16481;BME280;44634;54.110;12.138;2023-04-10T00:13:18;102368.75;;;6.93;100.00
16481;BME280;44634;54.110;12.138;2023-04-10T00:15:46;102352.81;;;6.60;100.00
16481;BME280;44634;54.110;12.138;2023-04-10T00:18:15;102335.84;;;7.03;100.00
16481;BME280;44634;54.110;12.138;2023-04-10T00:20:42;102322.78;;;7.19;100.00
16481;BME280;44634;54.110;12.138;2023-04-10T00:23:10;102331.84;;;7.13;100.00
16481;BME280;44634;54.110;12.138;2023-04-10T00:25:39;102322.53;;;7.23;100.00
16481;BME280;44634;54.110;12.138;2023-04-10T00:28:07;102318.19;;;7.05;100.00
16481;BME280;44634;54.110;12.138;2023-04-10T00:30:35;102318.59;;;7.14;100.00
16481;BME280;44634;54.110;12.138;2023-04-10T00:33:02;102322.94;;;7.33;100.00
16481;BME280;44634;54.110;12.138;2023-04-10T00:35:31;102329.44;;;7.26;100.00
16481;BME280;44634;54.110;12.138;2023-04-10T00:37:58;102334.88;;;7.40;100.00
16481;BME280;44634;54.110;12.138;2023-04-10T00:40:26;102347.00;;;7.93;100.00
16481;BME280;44634;54.110;12.138;2023-04-10T00:42:57;102351.03;;;7.67;100.00
16481;BME280;44634;54.110;12.138;2023-04-10T00:45:25;102359.69;;;7.52;100.00
16481;BME280;44634;54.110;12.138;2023-04-10T00:47:53;102354.44;;;7.69;100.00
16481;BME280;44634;54.110;12.138;2023-04-10T00:50:22;102368.22;;;7.57;100.00
16481;BME280;44634;54.110;12.138;2023-04-10T00:52:50;102353.53;;;7.53;100.00
16481;BME280;44634;54.110;12.138;2023-04-10T00:55:18;102356.91;;;7.55;100.00
16481;BME280;44634;54.110;12.138;2023-04-10T00:57:46;102371.78;;;7.56;100.00
16481;BME280;44634;54.110;12.138;2023-04-10T01:00:16;102355.50;;;7.30;100.00
16481;BME280;44634;54.110;12.138;2023-04-10T01:02:44;102349.22;;;7.50;100.00
16481;BME280;44634;54.110;12.138;2023-04-10T01:05:12;102359.06;;;7.12;100.00
16481;BME280;44634;54.110;12.138;2023-04-10T01:07:53;102336.78;;;7.19;100.00
16481;BME280;44634;54.110;12.138;2023-04-10T01:10:27;102333.63;;;7.30;100.00
16481;BME280;44634;54.110;12.138;2023-04-10T01:13:01;102337.94;;;7.31;100.00
16481;BME280;44634;54.110;12.138;2023-04-10T01:15:39;102326.41;;;7.51;100.00
16481;BME280;44634;54.110;12.138;2023-04-10T01:18:15;102332.59;;;7.32;100.00
16481;BME280;44634;54.110;12.138;2023-04-10T01:20:45;102320.53;;;7.28;100.00
16481;BME280;44634;54.110;12.138;2023-04-10T01:26:35;102333.44;;;7.50;100.00
16481;BME280;44634;54.110;12.138;2023-04-10T01:29:08;102322.78;;;7.19;100.00
16481;BME280;44634;54.110;12.138;2023-04-10T01:31:40;102332.31;;;7.56;100.00
16481;BME280;44634;54.110;12.138;2023-04-10T01:34:14;102338.88;;;7.30;100.00
16481;BME280;44634;54.110;12.138;2023-04-10T01:36:48;102361.88;;;7.43;100.00
16481;BME280;44634;54.110;12.138;2023-04-10T01:39:18;102380.34;;;7.25;100.00
16481;BME280;44634;54.110;12.138;2023-04-10T01:41:50;102364.03;;;7.35;100.00
16481;BME280;44634;54.110;12.138;2023-04-10T01:44:22;102343.13;;;7.67;100.00
16481;BME280;44634;54.110;12.138;2023-04-10T01:46:52;102339.66;;;7.32;100.00
16481;BME280;44634;54.110;12.138;2023-04-10T01:49:20;102345.31;;;7.24;100.00
16481;BME280;44634;54.110;12.138;2023-04-10T01:51:50;102352.81;;;7.32;100.00
16481;BME280;44634;54.110;12.138;2023-04-10T01:54:19;102340.69;;;6.93;100.00
16481;BME280;44634;54.110;12.138;2023-04-10T01:56:47;102325.09;;;7.42;100.00
16481;BME280;44634;54.110;12.138;2023-04-10T01:59:15;102344.56;;;7.03;100.00
16481;BME280;44634;54.110;12.138;2023-04-10T02:01:44;102346.22;;;7.23;100.00
16481;BME280;44634;54.110;12.138;2023-04-10T02:04:12;102335.41;;;6.93;100.00
16481;BME280;44634;54.110;12.138;2023-04-10T02:06:46;102321.94;;;7.53;100.00
16481;BME280;44634;54.110;12.138;2023-04-10T02:09:19;102325.31;;;7.03;100.00
16481;BME280;44634;54.110;12.138;2023-04-10T02:11:54;102307.22;;;7.49;100.00
16481;BME280;44634;54.110;12.138;2023-04-10T02:14:26;102347.59;;;7.65;100.00
16481;BME280;44634;54.110;12.138;2023-04-10T02:16:58;102344.75;;;7.18;100.00
16481;BME280;44634;54.110;12.138;2023-04-10T02:19:30;102318.09;;;6.89;100.00
16481;BME280;44634;54.110;12.138;2023-04-10T02:21:58;102314.78;;;7.03;100.00
16481;BME280;44634;54.110;12.138;2023-04-10T02:24:27;102313.34;;;7.14;100.00
16481;BME280;44634;54.110;12.138;2023-04-10T02:26:55;102326.72;;;6.74;100.00
16481;BME280;44634;54.110;12.138;2023-04-10T02:29:23;102307.91;;;6.83;100.00
16481;BME280;44634;54.110;12.138;2023-04-10T02:31:51;102301.59;;;6.68;100.00
16481;BME280;44634;54.110;12.138;2023-04-10T02:34:20;102288.47;;;6.49;100.00
16481;BME280;44634;54.110;12.138;2023-04-10T02:36:48;102278.91;;;6.84;100.00
16481;BME280;44634;54.110;12.138;2023-04-10T02:39:16;102267.97;;;6.92;100.00
16481;BME280;44634;54.110;12.138;2023-04-10T02:41:43;102272.81;;;6.65;100.00
16481;BME280;44634;54.110;12.138;2023-04-10T02:44:11;102274.56;;;6.47;100.00
16481;BME280;44634;54.110;12.138;2023-04-10T02:46:39;102251.25;;;6.59;100.00
16481;BME280;44634;54.110;12.138;2023-04-10T02:49:07;102240.13;;;6.53;100.00
16481;BME280;44634;54.110;12.138;2023-04-10T02:51:37;102257.03;;;7.01;100.00
16481;BME280;44634;54.110;12.138;2023-04-10T02:54:04;102283.66;;;6.76;100.00
16481;BME280;44634;54.110;12.138;2023-04-10T02:56:32;102274.75;;;6.98;100.00
16481;BME280;44634;54.110;12.138;2023-04-10T02:59:01;102264.97;;;6.82;100.00
16481;BME280;44634;54.110;12.138;2023-04-10T03:01:29;102278.16;;;6.64;100.00
16481;BME280;44634;54.110;12.138;2023-04-10T03:03:57;102277.84;;;6.52;100.00
16481;BME280;44634;54.110;12.138;2023-04-10T03:06:25;102257.59;;;6.36;100.00
16481;BME280;44634;54.110;12.138;2023-04-10T03:08:54;102245.75;;;6.46;100.00
16481;BME280;44634;54.110;12.138;2023-04-10T03:11:22;102224.13;;;6.75;100.00
16481;BME280;44634;54.110;12.138;2023-04-10T03:13:50;102232.84;;;6.59;100.00
16481;BME280;44634;54.110;12.138;2023-04-10T03:16:18;102253.38;;;6.69;100.00
16481;BME280;44634;54.110;12.138;2023-04-10T03:18:46;102264.09;;;6.29;100.00
16481;BME280;44634;54.110;12.138;2023-04-10T03:21:14;102242.44;;;6.60;100.00
16481;BME280;44634;54.110;12.138;2023-04-10T03:23:41;102204.09;;;6.55;100.00
16481;BME280;44634;54.110;12.138;2023-04-10T03:26:11;102196.03;;;6.24;100.00
16481;BME280;44634;54.110;12.138;2023-04-10T03:28:38;102211.91;;;6.21;100.00
16481;BME280;44634;54.110;12.138;2023-04-10T03:31:06;102205.88;;;6.19;100.00
16481;BME280;44634;54.110;12.138;2023-04-10T03:33:35;102222.00;;;6.11;100.00
16481;BME280;44634;54.110;12.138;2023-04-10T03:36:03;102193.09;;;6.30;100.00
16481;BME280;44634;54.110;12.138;2023-04-10T03:38:31;102195.16;;;5.86;100.00
16481;BME280;44634;54.110;12.138;2023-04-10T03:40:59;102176.59;;;5.90;100.00
16481;BME280;44634;54.110;12.138;2023-04-10T03:43:29;102164.72;;;6.19;100.00
16481;BME280;44634;54.110;12.138;2023-04-10T03:45:57;102164.22;;;5.94;100.00
16481;BME280;44634;54.110;12.138;2023-04-10T03:48:25;102164.72;;;6.19;100.00
16481;BME280;44634;54.110;12.138;2023-04-10T03:50:54;102177.56;;;6.25;100.00
16481;BME280;44634;54.110;12.138;2023-04-10T03:53:22;102196.31;;;6.18;100.00
16481;BME280;44634;54.110;12.138;2023-04-10T03:55:50;102182.38;;;5.59;100.00
16481;BME280;44634;54.110;12.138;2023-04-10T03:58:18;102175.03;;;6.05;100.00
16481;BME280;44634;54.110;12.138;2023-04-10T04:00:47;102184.91;;;6.36;100.00
16481;BME280;44634;54.110;12.138;2023-04-10T04:03:15;102195.38;;;5.81;100.00
16481;BME280;44634;54.110;12.138;2023-04-10T04:05:43;102197.59;;;5.90;100.00
16481;BME280;44634;54.110;12.138;2023-04-10T04:08:11;102181.91;;;5.70;100.00
16481;BME280;44634;54.110;12.138;2023-04-10T04:10:39;102175.13;;;6.21;100.00
16481;BME280;44634;54.110;12.138;2023-04-10T04:13:07;102189.13;;;6.75;100.00
16481;BME280;44634;54.110;12.138;2023-04-10T04:15:34;102200.13;;;6.83;100.00
16481;BME280;44634;54.110;12.138;2023-04-10T04:18:04;102231.19;;;6.75;100.00
16481;BME280;44634;54.110;12.138;2023-04-10T04:20:31;102231.22;;;6.39;100.00
16481;BME280;44634;54.110;12.138;2023-04-10T04:22:59;102214.59;;;6.38;100.00
16481;BME280;44634;54.110;12.138;2023-04-10T04:25:27;102198.84;;;6.19;100.00
16481;BME280;44634;54.110;12.138;2023-04-10T04:27:55;102195.38;;;5.81;100.00
16481;BME280;44634;54.110;12.138;2023-04-10T04:30:23;102174.94;;;6.07;100.00
16481;BME280;44634;54.110;12.138;2023-04-10T04:32:51;102184.56;;;6.08;100.00
16481;BME280;44634;54.110;12.138;2023-04-10T04:35:20;102191.91;;;6.54;100.00
16481;BME280;44634;54.110;12.138;2023-04-10T04:37:48;102208.78;;;6.32;100.00
16481;BME280;44634;54.110;12.138;2023-04-10T04:40:16;102223.25;;;6.21;100.00
16481;BME280;44634;54.110;12.138;2023-04-10T04:42:43;102209.22;;;6.04;100.00
16481;BME280;44634;54.110;12.138;2023-04-10T04:45:11;102207.19;;;6.10;100.00
16481;BME280;44634;54.110;12.138;2023-04-10T04:47:39;102201.66;;;6.52;100.00
16481;BME280;44634;54.110;12.138;2023-04-10T04:50:08;102218.72;;;6.78;100.00
16481;BME280;44634;54.110;12.138;2023-04-10T04:52:38;102225.47;;;6.67;100.00
16481;BME280;44634;54.110;12.138;2023-04-10T04:55:06;102218.19;;;6.00;100.00
16481;BME280;44634;54.110;12.138;2023-04-10T04:57:34;102180.94;;;5.91;100.00
16481;BME280;44634;54.110;12.138;2023-04-10T05:00:03;102152.81;;;6.12;100.00
16481;BME280;44634;54.110;12.138;2023-04-10T05:02:30;102155.59;;;5.90;100.00
16481;BME280;44634;54.110;12.138;2023-04-10T05:04:58;102170.81;;;6.56;100.00
16481;BME280;44634;54.110;12.138;2023-04-10T05:07:26;102211.44;;;6.13;100.00
16481;BME280;44634;54.110;12.138;2023-04-10T05:09:55;102218.66;;;6.97;100.00
16481;BME280;44634;54.110;12.138;2023-04-10T05:12:23;102220.13;;;6.32;100.00
16481;BME280;44634;54.110;12.138;2023-04-10T05:14:51;102222.00;;;6.47;100.00
16481;BME280;44634;54.110;12.138;2023-04-10T05:17:18;102228.00;;;6.51;100.00
16481;BME280;44634;54.110;12.138;2023-04-10T05:19:46;102241.84;;;6.72;100.00
16481;BME280;44634;54.110;12.138;2023-04-10T05:22:14;102244.41;;;6.91;100.00
16481;BME280;44634;54.110;12.138;2023-04-10T05:24:44;102258.41;;;7.08;100.00
16481;BME280;44634;54.110;12.138;2023-04-10T05:27:13;102260.25;;;6.89;100.00
16481;BME280;44634;54.110;12.138;2023-04-10T05:29:41;102270.84;;;6.88;100.00
16481;BME280;44634;54.110;12.138;2023-04-10T05:32:08;102277.38;;;6.98;100.00
16481;BME280;44634;54.110;12.138;2023-04-10T05:34:36;102285.69;;;6.89;100.00
16481;BME280;44634;54.110;12.138;2023-04-10T05:37:04;102285.28;;;6.79;100.00
16481;BME280;44634;54.110;12.138;2023-04-10T05:39:32;102277.81;;;7.06;100.00
16481;BME280;44634;54.110;12.138;2023-04-10T05:41:59;102305.81;;;7.07;100.00
16481;BME280;44634;54.110;12.138;2023-04-10T05:44:29;102315.28;;;7.28;100.00
16481;BME280;44634;54.110;12.138;2023-04-10T05:46:57;102328.03;;;7.19;100.00
16481;BME280;44634;54.110;12.138;2023-04-10T05:49:25;102345.97;;;8.13;100.00
16481;BME280;44634;54.110;12.138;2023-04-10T05:51:53;102331.13;;;7.61;100.00
16481;BME280;44634;54.110;12.138;2023-04-10T05:54:21;102327.81;;;7.58;100.00
16481;BME280;44634;54.110;12.138;2023-04-10T05:56:48;102335.31;;;7.48;100.00
16481;BME280;44634;54.110;12.138;2023-04-10T05:59:16;102335.84;;;7.37;100.00
16481;BME280;44634;54.110;12.138;2023-04-10T06:01:45;102344.75;;;7.35;100.00
16481;BME280;44634;54.110;12.138;2023-04-10T06:04:13;102335.88;;;7.55;100.00
16481;BME280;44634;54.110;12.138;2023-04-10T06:06:41;102331.66;;;7.68;100.00
16481;BME280;44634;54.110;12.138;2023-04-10T06:09:09;102336.47;;;7.42;100.00
16481;BME280;44634;54.110;12.138;2023-04-10T06:11:37;102306.84;;;7.39;100.00
16481;BME280;44634;54.110;12.138;2023-04-10T06:14:05;102312.63;;;7.96;100.00
16481;BME280;44634;54.110;12.138;2023-04-10T06:16:33;102325.47;;;7.34;100.00
16481;BME280;44634;54.110;12.138;2023-04-10T06:19:02;102310.06;;;7.94;100.00
16481;BME280;44634;54.110;12.138;2023-04-10T06:21:30;102308.28;;;7.62;100.00
16481;BME280;44634;54.110;12.138;2023-04-10T06:23:58;102292.13;;;7.35;100.00
16481;BME280;44634;54.110;12.138;2023-04-10T06:26:26;102289.25;;;7.57;100.00
16481;BME280;44634;54.110;12.138;2023-04-10T06:28:53;102291.56;;;7.63;100.00
16481;BME280;44634;54.110;12.138;2023-04-10T06:31:23;102286.78;;;8.35;100.00
16481;BME280;44634;54.110;12.138;2023-04-10T06:33:51;102296.00;;;7.78;100.00
16481;BME280;44634;54.110;12.138;2023-04-10T06:36:20;102288.75;;;7.99;100.00
16481;BME280;44634;54.110;12.138;2023-04-10T06:38:48;102288.16;;;8.43;100.00
16481;BME280;44634;54.110;12.138;2023-04-10T06:41:15;102303.66;;;8.16;100.00
16481;BME280;44634;54.110;12.138;2023-04-10T06:43:43;102296.34;;;7.72;100.00
16481;BME280;44634;54.110;12.138;2023-04-10T06:46:12;102295.66;;;8.17;100.00
16481;BME280;44634;54.110;12.138;2023-04-10T06:48:41;102306.38;;;8.77;100.00
16481;BME280;44634;54.110;12.138;2023-04-10T06:51:09;102309.41;;;8.40;100.00
16481;BME280;44634;54.110;12.138;2023-04-10T06:53:38;102299.78;;;8.39;100.00
16481;BME280;44634;54.110;12.138;2023-04-10T06:56:06;102314.41;;;8.44;100.00
16481;BME280;44634;54.110;12.138;2023-04-10T06:58:34;102313.19;;;8.97;100.00
16481;BME280;44634;54.110;12.138;2023-04-10T07:01:02;102319.16;;;8.69;100.00
16481;BME280;44634;54.110;12.138;2023-04-10T07:03:30;102330.19;;;9.21;100.00
16481;BME280;44634;54.110;12.138;2023-04-10T07:05:59;102330.91;;;9.09;100.00
16481;BME280;44634;54.110;12.138;2023-04-10T07:08:27;102327.03;;;9.01;100.00
16481;BME280;44634;54.110;12.138;2023-04-10T07:10:56;102327.69;;;9.78;100.00
16481;BME280;44634;54.110;12.138;2023-04-10T07:13:24;102332.75;;;9.67;100.00
16481;BME280;44634;54.110;12.138;2023-04-10T07:15:52;102342.97;;;9.88;100.00
16481;BME280;44634;54.110;12.138;2023-04-10T07:18:20;102325.31;;;9.60;100.00
16481;BME280;44634;54.110;12.138;2023-04-10T07:20:49;102324.19;;;9.78;100.00
16481;BME280;44634;54.110;12.138;2023-04-10T07:23:17;102340.78;;;9.94;100.00
16481;BME280;44634;54.110;12.138;2023-04-10T07:25:45;102325.59;;;10.12;100.00
16481;BME280;44634;54.110;12.138;2023-04-10T07:28:14;102335.06;;;10.45;100.00
16481;BME280;44634;54.110;12.138;2023-04-10T07:30:42;102348.28;;;10.02;100.00
16481;BME280;44634;54.110;12.138;2023-04-10T07:33:10;102333.38;;;10.70;100.00
16481;BME280;44634;54.110;12.138;2023-04-10T07:35:39;102342.28;;;10.12;100.00
16481;BME280;44634;54.110;12.138;2023-04-10T07:38:07;102347.91;;;11.05;100.00
16481;BME280;44634;54.110;12.138;2023-04-10T07:40:35;102356.59;;;10.80;100.00
16481;BME280;44634;54.110;12.138;2023-04-10T07:43:03;102345.09;;;10.93;100.00
16481;BME280;44634;54.110;12.138;2023-04-10T07:45:32;102350.84;;;11.00;100.00
16481;BME280;44634;54.110;12.138;2023-04-10T07:48:00;102350.38;;;11.20;100.00
16481;BME280;44634;54.110;12.138;2023-04-10T07:50:28;102337.06;;;10.68;100.00
16481;BME280;44634;54.110;12.138;2023-04-10T07:52:57;102341.53;;;11.07;100.00
16481;BME280;44634;54.110;12.138;2023-04-10T07:55:28;102345.59;;;11.78;100.00
16481;BME280;44634;54.110;12.138;2023-04-10T07:57:56;102337.00;;;12.00;100.00
16481;BME280;44634;54.110;12.138;2023-04-10T08:00:24;102339.09;;;12.33;100.00
16481;BME280;44634;54.110;12.138;2023-04-10T08:02:53;102346.66;;;12.13;100.00
16481;BME280;44634;54.110;12.138;2023-04-10T08:05:21;102342.41;;;12.84;100.00
16481;BME280;44634;54.110;12.138;2023-04-10T08:07:49;102341.56;;;12.84;100.00
16481;BME280;44634;54.110;12.138;2023-04-10T08:10:17;102343.72;;;13.61;100.00
16481;BME280;44634;54.110;12.138;2023-04-10T08:12:45;102363.22;;;13.38;100.00
16481;BME280;44634;54.110;12.138;2023-04-10T08:15:13;102353.78;;;14.03;100.00
16481;BME280;44634;54.110;12.138;2023-04-10T08:17:40;102364.88;;;13.85;100.00
16481;BME280;44634;54.110;12.138;2023-04-10T08:20:11;102357.88;;;13.14;100.00
16481;BME280;44634;54.110;12.138;2023-04-10T08:22:39;102347.59;;;13.68;100.00
16481;BME280;44634;54.110;12.138;2023-04-10T08:25:07;102353.28;;;13.97;100.00
16481;BME280;44634;54.110;12.138;2023-04-10T08:27:35;102340.97;;;14.08;100.00
16481;BME280;44634;54.110;12.138;2023-04-10T08:30:03;102337.31;;;13.86;100.00
16481;BME280;44634;54.110;12.138;2023-04-10T08:32:31;102338.03;;;13.66;100.00
16481;BME280;44634;54.110;12.138;2023-04-10T08:34:59;102327.00;;;13.59;100.00
16481;BME280;44634;54.110;12.138;2023-04-10T08:37:29;102327.44;;;13.99;100.00
16481;BME280;44634;54.110;12.138;2023-04-10T08:39:56;102327.19;;;14.25;100.00
16481;BME280;44634;54.110;12.138;2023-04-10T08:42:24;102326.22;;;13.92;100.00
16481;BME280;44634;54.110;12.138;2023-04-10T08:44:52;102332.13;;;14.29;100.00
16481;BME280;44634;54.110;12.138;2023-04-10T08:47:21;102341.16;;;14.72;100.00
16481;BME280;44634;54.110;12.138;2023-04-10T08:49:53;102332.97;;;14.52;100.00
16481;BME280;44634;54.110;12.138;2023-04-10T08:52:23;102333.69;;;14.43;100.00
16481;BME280;44634;54.110;12.138;2023-04-10T08:54:55;102321.47;;;14.95;100.00
16481;BME280;44634;54.110;12.138;2023-04-10T08:57:24;102332.13;;;14.95;100.00
16481;BME280;44634;54.110;12.138;2023-04-10T08:59:53;102328.19;;;14.78;100.00
16481;BME280;44634;54.110;12.138;2023-04-10T09:02:23;102329.88;;;15.11;100.00
16481;BME280;44634;54.110;12.138;2023-04-10T09:04:52;102332.69;;;14.78;100.00
16481;BME280;44634;54.110;12.138;2023-04-10T09:07:22;102319.81;;;14.83;100.00
16481;BME280;44634;54.110;12.138;2023-04-10T09:09:49;102313.66;;;14.82;100.00
16481;BME280;44634;54.110;12.138;2023-04-10T09:12:18;102317.28;;;15.13;100.00
16481;BME280;44634;54.110;12.138;2023-04-10T09:14:46;102318.59;;;16.12;100.00
16481;BME280;44634;54.110;12.138;2023-04-10T09:17:19;102313.44;;;17.09;100.00
16481;BME280;44634;54.110;12.138;2023-04-10T09:19:48;102318.16;;;16.07;100.00
16481;BME280;44634;54.110;12.138;2023-04-10T09:22:18;102312.91;;;16.36;100.00
16481;BME280;44634;54.110;12.138;2023-04-10T09:24:55;102314.97;;;16.32;100.00
16481;BME280;44634;54.110;12.138;2023-04-10T09:27:30;102306.66;;;17.05;100.00
16481;BME280;44634;54.110;12.138;2023-04-10T09:29:58;102300.03;;;17.18;100.00
16481;BME280;44634;54.110;12.138;2023-04-10T09:32:36;102301.56;;;17.40;100.00
16481;BME280;44634;54.110;12.138;2023-04-10T09:35:05;102299.78;;;17.88;100.00
16481;BME280;44634;54.110;12.138;2023-04-10T09:37:34;102289.38;;;18.39;96.85
16481;BME280;44634;54.110;12.138;2023-04-10T09:40:03;102284.59;;;19.40;95.40
16481;BME280;44634;54.110;12.138;2023-04-10T09:42:34;102278.50;;;19.82;85.45
16481;BME280;44634;54.110;12.138;2023-04-10T09:45:03;102280.13;;;19.75;84.70
16481;BME280;44634;54.110;12.138;2023-04-10T09:47:31;102268.75;;;19.81;85.78
16481;BME280;44634;54.110;12.138;2023-04-10T09:49:59;102255.25;;;20.07;77.98
16481;BME280;44634;54.110;12.138;2023-04-10T09:52:30;102256.50;;;19.78;84.74
16481;BME280;44634;54.110;12.138;2023-04-10T09:55:00;102252.28;;;18.98;88.23
16481;BME280;44634;54.110;12.138;2023-04-10T09:57:29;102240.44;;;19.95;77.82
16481;BME280;44634;54.110;12.138;2023-04-10T10:00:00;102246.03;;;19.67;74.61
16481;BME280;44634;54.110;12.138;2023-04-10T10:02:28;102246.78;;;19.25;75.63
16481;BME280;44634;54.110;12.138;2023-04-10T10:04:57;102240.53;;;19.51;69.30
16481;BME280;44634;54.110;12.138;2023-04-10T10:07:28;102243.91;;;19.01;68.34
16481;BME280;44634;54.110;12.138;2023-04-10T10:09:59;102236.88;;;19.00;71.80
16481;BME280;44634;54.110;12.138;2023-04-10T10:12:34;102224.16;;;19.88;67.60
16481;BME280;44634;54.110;12.138;2023-04-10T10:15:15;102219.28;;;19.91;63.43
16481;BME280;44634;54.110;12.138;2023-04-10T10:17:49;102216.50;;;20.09;61.44
16481;BME280;44634;54.110;12.138;2023-04-10T10:20:21;102202.19;;;19.92;58.87
16481;BME280;44634;54.110;12.138;2023-04-10T10:22:51;102204.84;;;20.67;50.64
16481;BME280;44634;54.110;12.138;2023-04-10T10:25:20;102196.63;;;20.85;52.61
16481;BME280;44634;54.110;12.138;2023-04-10T10:27:48;102206.22;;;19.28;57.47
16481;BME280;44634;54.110;12.138;2023-04-10T10:30:21;102199.34;;;19.00;64.42
16481;BME280;44634;54.110;12.138;2023-04-10T10:32:57;102192.88;;;20.29;55.98
16481;BME280;44634;54.110;12.138;2023-04-10T10:35:26;102180.31;;;20.78;48.23
16481;BME280;44634;54.110;12.138;2023-04-10T10:37:57;102177.91;;;22.34;44.12
16481;BME280;44634;54.110;12.138;2023-04-10T10:40:28;102185.03;;;20.68;51.89
16481;BME280;44634;54.110;12.138;2023-04-10T10:43:05;102181.69;;;20.58;49.08
16481;BME280;44634;54.110;12.138;2023-04-10T10:45:40;102170.97;;;21.46;45.14
16481;BME280;44634;54.110;12.138;2023-04-10T10:48:10;102168.09;;;22.18;43.37
16481;BME280;44634;54.110;12.138;2023-04-10T10:50:49;102159.63;;;20.38;48.68
16481;BME280;44634;54.110;12.138;2023-04-10T10:53:33;102156.88;;;21.75;46.13
16481;BME280;44634;54.110;12.138;2023-04-10T10:59:10;102147.66;;;21.30;48.86
16481;BME280;44634;54.110;12.138;2023-04-10T11:02:11;102152.47;;;20.55;50.11
16481;BME280;44634;54.110;12.138;2023-04-10T11:04:43;102142.53;;;20.31;55.94
16481;BME280;44634;54.110;12.138;2023-04-10T11:07:11;102137.84;;;21.46;50.61
16481;BME280;44634;54.110;12.138;2023-04-10T11:09:47;102115.25;;;23.07;45.66
16481;BME280;44634;54.110;12.138;2023-04-10T11:12:15;102121.34;;;21.80;46.92
16481;BME280;44634;54.110;12.138;2023-04-10T11:14:44;102106.06;;;22.64;47.34
16481;BME280;44634;54.110;12.138;2023-04-10T11:17:50;102102.13;;;23.04;46.52
16481;BME280;44634;54.110;12.138;2023-04-10T11:20:20;102103.41;;;21.41;45.62
16481;BME280;44634;54.110;12.138;2023-04-10T11:23:06;102098.75;;;22.35;46.68
16481;BME280;44634;54.110;12.138;2023-04-10T11:25:51;102097.47;;;21.77;46.10
16481;BME280;44634;54.110;12.138;2023-04-10T11:28:38;102086.06;;;21.66;47.92
16481;BME280;44634;54.110;12.138;2023-04-10T11:31:17;102078.88;;;21.90;47.23
16481;BME280;44634;54.110;12.138;2023-04-10T11:33:47;102081.22;;;21.62;48.07
16481;BME280;44634;54.110;12.138;2023-04-10T11:36:15;102066.09;;;21.61;47.41
16481;BME280;44634;54.110;12.138;2023-04-10T11:38:54;102069.56;;;22.38;46.22
16481;BME280;44634;54.110;12.138;2023-04-10T11:41:26;102050.56;;;22.69;44.15
16481;BME280;44634;54.110;12.138;2023-04-10T11:43:56;102041.28;;;22.19;44.03
16481;BME280;44634;54.110;12.138;2023-04-10T11:46:24;102045.38;;;20.91;49.21
16481;BME280;44634;54.110;12.138;2023-04-10T11:48:54;102036.19;;;22.24;46.52
16481;BME280;44634;54.110;12.138;2023-04-10T11:51:22;102018.38;;;22.68;44.94
16481;BME280;44634;54.110;12.138;2023-04-10T11:54:03;102031.78;;;21.86;45.69
16481;BME280;44634;54.110;12.138;2023-04-10T11:56:31;102012.84;;;21.94;44.62
16481;BME280;44634;54.110;12.138;2023-04-10T11:58:58;102009.28;;;21.56;44.56
16481;BME280;44634;54.110;12.138;2023-04-10T12:01:28;102003.34;;;22.06;43.77
16481;BME280;44634;54.110;12.138;2023-04-10T12:03:57;102004.19;;;21.61;42.67
16481;BME280;44634;54.110;12.138;2023-04-10T12:06:25;102004.28;;;21.14;42.61
16481;BME280;44634;54.110;12.138;2023-04-10T12:08:54;101995.28;;;22.06;39.87
16481;BME280;44634;54.110;12.138;2023-04-10T12:11:23;101993.06;;;21.41;41.71
16481;BME280;44634;54.110;12.138;2023-04-10T12:13:52;101991.78;;;22.20;38.93
16481;BME280;44634;54.110;12.138;2023-04-10T12:16:21;101976.31;;;21.54;39.21
16481;BME280;44634;54.110;12.138;2023-04-10T12:18:49;101975.97;;;21.94;38.21
16481;BME280;44634;54.110;12.138;2023-04-10T12:21:20;101973.09;;;21.58;37.76
16481;BME280;44634;54.110;12.138;2023-04-10T12:23:48;101968.97;;;20.86;38.49
16481;BME280;44634;54.110;12.138;2023-04-10T12:26:17;101963.16;;;21.96;35.97
16481;BME280;44634;54.110;12.138;2023-04-10T12:28:50;101962.88;;;21.91;34.64
16481;BME280;44634;54.110;12.138;2023-04-10T12:31:26;101958.78;;;22.18;33.01
16481;BME280;44634;54.110;12.138;2023-04-10T12:33:54;101957.88;;;22.55;32.32
16481;BME280;44634;54.110;12.138;2023-04-10T12:36:26;101958.09;;;22.02;31.98
16481;BME280;44634;54.110;12.138;2023-04-10T12:38:55;101958.25;;;22.52;31.95
16481;BME280;44634;54.110;12.138;2023-04-10T12:41:25;101965.91;;;21.74;32.24
16481;BME280;44634;54.110;12.138;2023-04-10T12:44:05;101955.97;;;21.51;32.67
16481;BME280;44634;54.110;12.138;2023-04-10T12:46:33;101943.34;;;22.12;31.32
16481;BME280;44634;54.110;12.138;2023-04-10T12:49:09;101956.28;;;22.17;30.80
16481;BME280;44634;54.110;12.138;2023-04-10T12:51:42;101937.34;;;21.87;31.41
16481;BME280;44634;54.110;12.138;2023-04-10T12:54:11;101930.19;;;22.47;30.74
16481;BME280;44634;54.110;12.138;2023-04-10T12:56:43;101931.88;;;21.95;30.80